Askov, Minnesota
Current Conditions -  °F | °C
As of 12:26 AM on Sunday 23 Nov 2014 (Local Time) from K04W Reporting Station
Haze Haze  
Wind Chill: 36°   Ceiling: 200
Heat Index: 36°   Visibility: 0.75mi
Dew Point: 36°   Wind: 3mph
Humidity: 100%   Direction: 110°ESE
Pressure: 29.48"   Gusts: NA
Location:  46.19°N, 92.78°W
Report Text: K04W 230626Z AUTO 11003KT 3/4SM BR OVC002 02/02 A2948 RMK AO2
Loading
Personal Weather Stations






























Interactive Weather Map New forecast layout! Learn more

10-Day Weather Forecast

Advertisements
Track Severe Weather on mobile